N511EM MDJB-TJPS
Flight info
| Callsign | N511EM |
|---|---|
| Flight time | N/A |
| Altitude | 13000 |
| Route | DCT CDO W41 MELLA G633 MAZ DCT |
| Aircraft | K100/L-SBDGRY/S |
Departure
| Time | 2026-04-16 22:57 |
|---|---|
| Airport | La Isabela International Airport (MDJB) |
Arrival
| Time | N/A |
|---|---|
| Airport | Mercedita International Airport (TJPS) |
| Time | Latitude | Longitude | Altitude | Speed | Heading |
|---|---|---|---|---|---|
| 2026-04-16 22:46 | 18.57512 | -69.98302 | 64 ft | 0 kts | 231° |
| 2026-04-16 22:52 | 18.57516 | -69.98316 | 59 ft | 3 kts | 320° |
| 2026-04-16 22:53 | 18.57519 | -69.98319 | 65 ft | 3 kts | 320° |
| 2026-04-16 22:53 | 18.57569 | -69.98328 | 64 ft | 11 kts | 5° |
| 2026-04-16 22:54 | 18.57654 | -69.98316 | 68 ft | 14 kts | 358° |
| 2026-04-16 22:54 | 18.57740 | -69.98341 | 70 ft | 14 kts | 4° |
| 2026-04-16 22:54 | 18.57849 | -69.98328 | 73 ft | 16 kts | 7° |
| 2026-04-16 22:54 | 18.57940 | -69.98335 | 71 ft | 14 kts | 308° |
| 2026-04-16 22:55 | 18.57955 | -69.98401 | 76 ft | 0 kts | 275° |
| 2026-04-16 22:55 | 18.57956 | -69.98401 | 76 ft | 1 kts | 275° |
| 2026-04-16 22:55 | 18.57958 | -69.98466 | 77 ft | 14 kts | 250° |
| 2026-04-16 22:56 | 18.57925 | -69.98488 | 73 ft | 0 kts | 185° |
| 2026-04-16 22:56 | 18.57704 | -69.98511 | 72 ft | 70 kts | 187° |
| 2026-04-16 22:56 | 18.57072 | -69.98555 | 224 ft | 102 kts | 181° |
| 2026-04-16 22:56 | 18.56314 | -69.98561 | 520 ft | 116 kts | 180° |
| 2026-04-16 22:57 | 18.55467 | -69.98521 | 779 ft | 129 kts | 176° |
| 2026-04-16 22:57 | 18.54579 | -69.98462 | 1220 ft | 121 kts | 174° |
| 2026-04-16 22:57 | 18.53753 | -69.98446 | 1652 ft | 118 kts | 176° |
| 2026-04-16 22:57 | 18.52929 | -69.98423 | 2111 ft | 118 kts | 176° |
| 2026-04-16 22:58 | 18.52122 | -69.98404 | 2597 ft | 118 kts | 175° |
| 2026-04-16 22:58 | 18.51282 | -69.98385 | 2984 ft | 128 kts | 176° |
| 2026-04-16 22:58 | 18.50291 | -69.98362 | 3000 ft | 154 kts | 176° |
| 2026-04-16 22:58 | 18.49182 | -69.98333 | 3006 ft | 163 kts | 175° |
| 2026-04-16 22:59 | 18.48059 | -69.98298 | 3199 ft | 154 kts | 175° |
| 2026-04-16 22:59 | 18.47066 | -69.98272 | 3754 ft | 133 kts | 175° |
| 2026-04-16 22:59 | 18.46200 | -69.98062 | 4198 ft | 128 kts | 140° |
| 2026-04-16 22:59 | 18.45864 | -69.97230 | 4557 ft | 129 kts | 96° |
| 2026-04-16 23:00 | 18.45802 | -69.96279 | 4927 ft | 131 kts | 96° |
| 2026-04-16 23:00 | 18.45718 | -69.95324 | 5294 ft | 131 kts | 97° |
| 2026-04-16 23:00 | 18.45639 | -69.94361 | 5647 ft | 132 kts | 97° |
| 2026-04-16 23:00 | 18.45561 | -69.93393 | 5986 ft | 133 kts | 97° |
| 2026-04-16 23:01 | 18.45482 | -69.92419 | 6328 ft | 134 kts | 96° |
| 2026-04-16 23:01 | 18.45405 | -69.91432 | 6629 ft | 136 kts | 97° |
| 2026-04-16 23:01 | 18.45326 | -69.90440 | 6942 ft | 136 kts | 97° |
| 2026-04-16 23:01 | 18.45247 | -69.89443 | 7247 ft | 137 kts | 97° |
| 2026-04-16 23:02 | 18.45167 | -69.88441 | 7548 ft | 138 kts | 97° |
| 2026-04-16 23:02 | 18.45085 | -69.87431 | 7852 ft | 139 kts | 97° |
| 2026-04-16 23:02 | 18.45004 | -69.86419 | 8149 ft | 139 kts | 97° |
| 2026-04-16 23:02 | 18.44923 | -69.85404 | 8426 ft | 139 kts | 97° |
| 2026-04-16 23:03 | 18.44842 | -69.84396 | 8711 ft | 141 kts | 97° |
| 2026-04-16 23:03 | 18.44760 | -69.83371 | 9002 ft | 141 kts | 97° |
| 2026-04-16 23:03 | 18.44678 | -69.82339 | 9284 ft | 142 kts | 97° |
| 2026-04-16 23:03 | 18.44594 | -69.81305 | 9558 ft | 142 kts | 97° |
| 2026-04-16 23:04 | 18.44510 | -69.80264 | 9835 ft | 143 kts | 97° |
| 2026-04-16 23:04 | 18.44426 | -69.79217 | 10073 ft | 144 kts | 97° |
| 2026-04-16 23:04 | 18.44341 | -69.78162 | 10311 ft | 145 kts | 97° |
| 2026-04-16 23:04 | 18.44255 | -69.77107 | 10553 ft | 145 kts | 97° |
| 2026-04-16 23:05 | 18.44170 | -69.76047 | 10795 ft | 145 kts | 97° |
| 2026-04-16 23:05 | 18.44084 | -69.74985 | 11023 ft | 146 kts | 97° |
| 2026-04-16 23:05 | 18.43997 | -69.73912 | 11255 ft | 147 kts | 97° |
| 2026-04-16 23:05 | 18.43910 | -69.72833 | 11472 ft | 149 kts | 97° |
| 2026-04-16 23:06 | 18.43822 | -69.71747 | 11698 ft | 149 kts | 97° |
| 2026-04-16 23:06 | 18.43763 | -69.71026 | 11844 ft | 150 kts | 96° |
| 2026-04-16 23:06 | 18.43675 | -69.69934 | 12056 ft | 150 kts | 97° |
| 2026-04-16 23:06 | 18.43587 | -69.68837 | 12311 ft | 151 kts | 97° |
| 2026-04-16 23:07 | 18.43496 | -69.67734 | 12576 ft | 151 kts | 96° |
| 2026-04-16 23:07 | 18.43349 | -69.66263 | 12894 ft | 154 kts | 101° |
| 2026-04-16 23:07 | 18.43186 | -69.65117 | 12968 ft | 164 kts | 100° |
| 2026-04-16 23:07 | 18.43079 | -69.64294 | 12972 ft | 171 kts | 99° |
| 2026-04-16 23:08 | 18.42913 | -69.63034 | 12978 ft | 177 kts | 99° |
| 2026-04-16 23:08 | 18.42744 | -69.61755 | 12981 ft | 181 kts | 98° |
| 2026-04-16 23:08 | 18.42567 | -69.60426 | 12983 ft | 185 kts | 99° |
| 2026-04-16 23:08 | 18.42386 | -69.59079 | 12983 ft | 187 kts | 99° |
| 2026-04-16 23:09 | 18.42204 | -69.57723 | 12982 ft | 187 kts | 98° |
| 2026-04-16 23:09 | 18.42022 | -69.56364 | 12982 ft | 187 kts | 100° |
| 2026-04-16 23:09 | 18.41838 | -69.55004 | 12983 ft | 187 kts | 99° |
| 2026-04-16 23:09 | 18.41654 | -69.53640 | 12983 ft | 188 kts | 99° |
| 2026-04-16 23:10 | 18.41471 | -69.52277 | 12982 ft | 188 kts | 99° |
| 2026-04-16 23:10 | 18.41286 | -69.50912 | 12983 ft | 188 kts | 100° |
| 2026-04-16 23:10 | 18.41102 | -69.49549 | 12985 ft | 188 kts | 99° |
| 2026-04-16 23:10 | 18.40919 | -69.48189 | 12985 ft | 187 kts | 100° |
| 2026-04-16 23:11 | 18.40735 | -69.46830 | 12985 ft | 187 kts | 100° |
| 2026-04-16 23:11 | 18.40550 | -69.45470 | 12983 ft | 188 kts | 99° |
| 2026-04-16 23:11 | 18.40366 | -69.44108 | 12986 ft | 188 kts | 100° |
| 2026-04-16 23:11 | 18.40182 | -69.42746 | 12986 ft | 188 kts | 100° |
| 2026-04-16 23:12 | 18.39998 | -69.41389 | 12988 ft | 187 kts | 99° |
| 2026-04-16 23:12 | 18.39818 | -69.40048 | 12986 ft | 188 kts | 99° |
| 2026-04-16 23:12 | 18.39631 | -69.38669 | 12989 ft | 188 kts | 99° |
| 2026-04-16 23:12 | 18.39448 | -69.37327 | 12995 ft | 188 kts | 99° |
| 2026-04-16 23:13 | 18.39263 | -69.35964 | 12992 ft | 188 kts | 99° |
| 2026-04-16 23:13 | 18.39078 | -69.34603 | 12992 ft | 188 kts | 100° |
| 2026-04-16 23:13 | 18.38892 | -69.33245 | 12992 ft | 188 kts | 99° |
| 2026-04-16 23:13 | 18.38707 | -69.31883 | 12992 ft | 188 kts | 99° |
| 2026-04-16 23:14 | 18.38523 | -69.30520 | 12988 ft | 188 kts | 99° |
| 2026-04-16 23:14 | 18.38336 | -69.29154 | 12990 ft | 188 kts | 98° |
| 2026-04-16 23:14 | 18.38152 | -69.27793 | 12990 ft | 188 kts | 99° |
| 2026-04-16 23:14 | 18.37966 | -69.26434 | 12990 ft | 188 kts | 99° |
| 2026-04-16 23:15 | 18.37594 | -69.23714 | 12992 ft | 188 kts | 99° |
| 2026-04-16 23:15 | 18.37409 | -69.22351 | 12992 ft | 188 kts | 100° |
| 2026-04-16 23:15 | 18.37226 | -69.21009 | 12991 ft | 188 kts | 100° |
| 2026-04-16 23:16 | 18.37040 | -69.19650 | 12994 ft | 187 kts | 99° |
| 2026-04-16 23:16 | 18.36855 | -69.18291 | 12988 ft | 187 kts | 100° |
| 2026-04-16 23:16 | 18.36669 | -69.16936 | 12987 ft | 187 kts | 99° |
| 2026-04-16 23:16 | 18.36483 | -69.15580 | 12986 ft | 187 kts | 100° |
| 2026-04-16 23:17 | 18.36297 | -69.14225 | 12985 ft | 187 kts | 99° |
| 2026-04-16 23:17 | 18.36112 | -69.12870 | 12985 ft | 186 kts | 99° |
| 2026-04-16 23:17 | 18.35927 | -69.11520 | 12984 ft | 187 kts | 99° |
| 2026-04-16 23:17 | 18.35742 | -69.10166 | 12984 ft | 187 kts | 99° |
| 2026-04-16 23:18 | 18.35556 | -69.08810 | 12984 ft | 187 kts | 99° |
| 2026-04-16 23:18 | 18.35368 | -69.07452 | 12983 ft | 187 kts | 99° |
| 2026-04-16 23:18 | 18.35182 | -69.06097 | 12983 ft | 187 kts | 99° |
| 2026-04-16 23:18 | 18.34997 | -69.04745 | 12982 ft | 187 kts | 99° |
| 2026-04-16 23:19 | 18.34810 | -69.03391 | 12980 ft | 187 kts | 99° |
| 2026-04-16 23:19 | 18.34624 | -69.02039 | 12980 ft | 187 kts | 99° |
| 2026-04-16 23:19 | 18.34437 | -69.00683 | 12980 ft | 187 kts | 99° |
| 2026-04-16 23:19 | 18.34251 | -68.99328 | 12980 ft | 187 kts | 99° |
| 2026-04-16 23:20 | 18.34064 | -68.97973 | 12979 ft | 187 kts | 99° |
| 2026-04-16 23:20 | 18.33878 | -68.96617 | 12980 ft | 187 kts | 99° |
| 2026-04-16 23:20 | 18.33690 | -68.95261 | 12979 ft | 187 kts | 99° |
| 2026-04-16 23:20 | 18.33506 | -68.93920 | 12980 ft | 187 kts | 99° |
| 2026-04-16 23:21 | 18.33319 | -68.92565 | 12982 ft | 187 kts | 99° |
| 2026-04-16 23:21 | 18.33131 | -68.91212 | 12982 ft | 187 kts | 99° |
| 2026-04-16 23:21 | 18.32943 | -68.89860 | 12982 ft | 187 kts | 99° |
| 2026-04-16 23:21 | 18.32757 | -68.88507 | 12982 ft | 187 kts | 99° |
| 2026-04-16 23:22 | 18.32569 | -68.87153 | 12983 ft | 187 kts | 99° |
| 2026-04-16 23:22 | 18.32381 | -68.85797 | 12981 ft | 187 kts | 98° |
| 2026-04-16 23:22 | 18.32194 | -68.84444 | 12982 ft | 187 kts | 99° |
| 2026-04-16 23:22 | 18.32007 | -68.83091 | 12982 ft | 187 kts | 98° |
| 2026-04-16 23:23 | 18.31820 | -68.81741 | 12982 ft | 187 kts | 99° |
| 2026-04-16 23:23 | 18.31632 | -68.80385 | 12982 ft | 187 kts | 98° |
| 2026-04-16 23:23 | 18.31444 | -68.79029 | 12983 ft | 187 kts | 99° |
| 2026-04-16 23:23 | 18.31255 | -68.77674 | 12984 ft | 187 kts | 99° |
| 2026-04-16 23:24 | 18.31066 | -68.76322 | 12984 ft | 186 kts | 99° |
| 2026-04-16 23:24 | 18.30879 | -68.74973 | 12984 ft | 186 kts | 99° |
| 2026-04-16 23:24 | 18.30691 | -68.73621 | 12984 ft | 187 kts | 99° |
| 2026-04-16 23:24 | 18.30501 | -68.72268 | 12983 ft | 187 kts | 99° |
| 2026-04-16 23:25 | 18.30313 | -68.70916 | 12984 ft | 187 kts | 99° |
| 2026-04-16 23:25 | 18.30127 | -68.69581 | 12984 ft | 186 kts | 99° |
| 2026-04-16 23:25 | 18.29938 | -68.68230 | 12984 ft | 187 kts | 99° |
| 2026-04-16 23:25 | 18.29751 | -68.66879 | 12984 ft | 187 kts | 98° |
| 2026-04-16 23:26 | 18.29563 | -68.65523 | 12985 ft | 187 kts | 99° |
| 2026-04-16 23:26 | 18.29373 | -68.64169 | 12985 ft | 187 kts | 99° |
| 2026-04-16 23:26 | 18.29184 | -68.62819 | 12985 ft | 187 kts | 99° |
| 2026-04-16 23:26 | 18.28994 | -68.61469 | 12985 ft | 186 kts | 98° |
| 2026-04-16 23:27 | 18.28806 | -68.60121 | 12983 ft | 186 kts | 99° |
| 2026-04-16 23:27 | 18.28616 | -68.58769 | 12983 ft | 187 kts | 99° |
| 2026-04-16 23:27 | 18.28426 | -68.57411 | 12983 ft | 187 kts | 99° |
| 2026-04-16 23:27 | 18.28236 | -68.56054 | 12983 ft | 187 kts | 99° |
| 2026-04-16 23:28 | 18.28046 | -68.54702 | 12984 ft | 187 kts | 99° |